Timeline UpdatesTrip UpdatesNews PostsPvt PostsTravel TipsAdmin PostsConv PostsFollowed PostsChat RequestsBlog PostsPNR Posts

Disclaimer
Search
 
 
Wed Sep 17, 2014 13:05:20 ISTHomeTrainsΣChainsAtlasPNRForumGalleryNewsFAQTripsMembersLoginFeedback
No Recent News for this Train
Other Trains in the News **new
Latest...
.
Fri Jun 22, 2012 (10:25PM)
⇐ Return Journey: Train# 54811

54812/Jodhpur-Bhopal Passenger

Time-Table HAS CHANGED.
Sep 02 (12:23AM)
Change Departure Station:
Change Arrival Station:
Post a Train Travel TipPost a Train Travel Tip **new
Post a Comment/Question/Picture/VideoPost a Comment/Question/Picture/Video
Pantry/Catering
✕ NO Pantry Car
✕ NO Catering
Loco/Rake Reversals
SWM/Sawai Madhopur Junction (4); KOTA/Kota Junction (5);
RSA - Rake Sharing
RSA with 54821/22 bhildi jodhpur passenger
Rake/Coach Composition
LOCO, SLR, GS, GS, GS, S-1, S-2, S-3, GS, GS, GS, GS, GS, GSLRD, STORE DELIVERY VAN
Loco
WDM 2A upto Bina, Bina to Bhopal: WAM 4
News    PNR    Forum    Time-Table    Availability    Fare Chart    Map    Arr/Dep History    Trips    Gallery    ΣChains    X/O    Timeline    
Travel Time: 6h 51m    25 halts    Distance: 244 km    Avg Speed: 35 km/hr
Type: Passenger
Zone: NWR/North Western
Departs @ 03:59
Platform# ???
SMTWTFS
Pagara/PGA 
Arrives @ 10:50
Platform# 5
SMTWTFS
Bhopal Junction/BPL 

25 halts. 35 intermediate Stations between Pagara and Bhopal Junction

Show ALL intermediate Stations  Show Old Time-Table

#CodeStation NameX/OArrivesAvgDepartsAvgHaltPFDay#KmSpeedElevZoneAddress
1JUJodhpur Junction (5)  -08:05---1-747.928241mNWRJodhpur, Rajasthan
2RKBRaikabagh Palace Junction (2)X  08:10-08:12-2m--1-745.660237mNWRJodhpur, Rajasthan
3BNOBanar  08:24-08:26-2m--1-733.755213mNWRBanar, Rajasthan
4JWLJajiwalX  08:35-08:37-2m--1-725.567228mNWRJodhpur, Rajasthan
5AASAsranada  08:45-08:47-2m--1-716.661251mNWRState Highway 58, Rajasthan
6KSWKheri Salwa  08:56-08:58-2m--1-707.564269mNWRJajiwal, Rajasthan
7PPRPipar Road Junction  09:04-09:06-2m--1-701.057272mNWRState Highway 58, Rajasthan
8SWFSathin Road  09:15-09:17-2m--1-692.562284mNWRUMED, Rajasthan
9UMEDUmedX  09:27-09:29-2m--1-682.256308mNWRJodhpur, Rajasthan
10KXGKharia Khangarh  09:40-09:42-2m--1-671.954310mNWRKharia Khangar, Rajasthan
11GOTNGotan (3)  09:50-09:52-2m--1-664.859323mNWRGotan, Rajasthan
12JOMJogi Magra (1)X  10:02-10:04-2m11-655.024335mNWRNagaur, Rajasthan
13MTDMerta Road Junction (4)  10:30-10:35-5m--1-644.6116322mNWRPhalodi, Rajasthan
14KQWKheduli (1)  10:43-10:45-2m--1-629.217307mNWRRen, Rajasthan
15RENRen  10:52-10:54-2m--1-627.263307mNWRNagaur, Rajasthan
16JACJalsu  11:07-11:09-2m--1-613.548321mNWRNagaur, Rajasthan
17JACNJalsu Nanak  11:16-11:18-2m--1-607.949331mNWRREN, Rajasthan
18DNADegana Junction (4)  11:27-11:30-3m--1-600.682339mNWRDegana, Rajasthan
19GCHGachhipura  11:41-11:43-2m--1-585.568362mNWRNagaur, Rajasthan
20BSRLBesroli  11:53-11:55-2m--1-574.271378mNWRNagaur, Rajasthan
21BOWBorawar  12:05-12:07-2m--1-562.339403mNWRBesrol, Rajasthan
22MKNMakrana Junction (2)  12:15-12:17-2m--1-557.257423mNWRMakrana, Rajasthan
23KMNCKuchaman City  12:32-12:34-2m--1-543.041404mNWRPalari, Rajasthan
24THMRThathana Mithri  12:41-12:43-2m--1-538.251388mNWRNawa City, Rajasthan
25NYKNaya KharadiaX  12:48-12:50-2m--1-534.036375mNWRMakrana, Rajasthan
26NACNawa City  13:01-13:03-2m--1-527.450390mNWRNawa, Rajasthan
27GVMRGovindi Marwar  13:14-13:16-2m--1-518.164373mNWRSambhar Lake, Rajasthan
28GAGudha (1)X  13:26-13:28-2m11-507.446365mNWRPhulera, Rajasthan
29SBRSambhar LakeO  13:38-13:40-2m--1-499.75368mNWRSambhar, Rajasthan
30FLPhulera Junction (5)X  15:00-15:05-5m--1-492.674386mNWRPhulera, Rajasthan
31HDAHirnoda  15:12-15:13-1m--1-483.940400mNWRJaipur, Rajasthan
32DHNDDhinda  15:19-15:20-1m--1-479.948386mNWRMDR 59, Rajasthan
33JOBAsalpur JobnerX  15:27-15:28-1m--1-474.256379mNWRJaipur, Rajasthan
34BOBSBobas  15:36-15:37-1m--1-466.852396mNWRJaipur, Rajasthan
35SHNXSheo Singh Pura  15:45-15:46-1m--1-459.938411mNWRJaipur, Rajasthan
36DNKDhanakya  15:52-15:53-1m--1-456.146418mNWRJaipur, Rajasthan
37BDYKBindayaka  15:59-16:00-1m--1-451.552411mNWRJaipur, Rajasthan
38KKUKanakpuraXO  16:06-16:07-1m--1-446.416429mNWRJaipur, Rajasthan
39JPJaipur Junction (7)X  16:45 16:40-17:45 16:50-60 10m41-437.545434mNWRJaipur, Rajasthan
40DPADurgapura (3)XO  17:54 17:00-17:55 17:53-1 53m11-430.142400mNWRJaipur, Rajasthan
41SNGNSanganer  18:04 18:00-18:05 18:02-1 2m11-425.277383mNWRJaipur, Rajasthan
42SASShivdaspura Padampura  18:20 18:15-18:21 18:17-1 2m11-408.669335mNWRJaipur, Rajasthan
43CKSChaksuX  18:32 18:29-18:33-1 4m--1-394.852319mNWRDist. Jaipur, Rajasthan
44CHNNChannani  18:46 18:45-18:47-1 2m--1-384.478326mNWRChaksu, Rajasthan
45BNLWBansthali Niwai (2)  18:58 18:57-18:59-1 2m--1-371.468315mNWRMaharajpura, Rajasthan
46SRASSiras  19:13-19:14-1m--1-355.761270mNWRIsarda, Rajasthan
47ISAIsarda  19:24-19:25-1m--1-345.557271mNWRMDR 111, Rajasthan
48SURLSureli  19:34-19:35-1m--1-336.9110258mNWRDevpura, Rajasthan
49CKBChauth ka Barwara (1)X  19:44 19:40-19:45-1 5m11-327.727272mNWRSawai Madhopur, Rajasthan
50DPZDevpura (1)X  20:11 20:10-20:12-1 2m11-316.750271mNWRSawai Madhopur, Rajasthan
51SWMSawai Madhopur Junction (4)O↵¶20:25-20:40-15m31-305.849266mWCRSawai Madhopur, Rajasthan
52RWJRawania DungarX  20:59-21:00-1m--1-290.351266mWCRSawai Madhopur, Rajasthan
53AMLIAmli  21:09-21:10-1m--1-282.787233mWCRSawai Madhopur, Rajasthan
54IDGIndargarh Sumerganj Mandi (2)  21:19-21:20-1m--1-269.673247mWCRIndargarh, Rajasthan
55LKELakheri (3)O  21:29-21:30-1m--1-258.667228mWCRBundi, Rajasthan
56KPZKaprenX  21:54-21:55-1m--1-231.767234mWCRKota - Lalsot Mega Highway, Rajasthan
57KPTNKeshorai PatanO  22:13-22:14-1m--1-211.526243mWCRSH 33, Rajasthan
58KOTAKota Junction (5)22:45-22:55-10m41-198.062256mWCRKota, Rajasthan
59ATHAntah  23:38-23:40-2m--1-153.334246mWCRAntah, Rajasthan
60BAZBaranX  00:18-00:20-2m--2-131.743261mWCRBaran, Rajasthan
61ATRUAtru (1)  01:01-01:03-2m12-102.560288mWCRAtru, Rajasthan
62SYLSalpura  01:17-01:18-1m--2-88.571311mWCRKawari, Rajasthan
63CAGChhabra Gugor  01:31-01:33-2m--2-73.032342mWCRBaran, Rajasthan
64RTARuthiyai Junction (2)  02:45-02:50-5m--2-34.454414mWCRRuthiyai, Madhya Pradesh
65MUGAMahugaraX  03:05-03:07-2m--2-20.925501mWCRRuthiyai, Madhya Pradesh
66GUNAGuna Junction (3)X  03:25-03:35-10m--2-13.537477mWCRJn Point Indore/Gwalior/Bina/Kota, Madhya Pradesh
67PGA»Pagara»  03:57-03:59-2m--20.046494mWCRGuna, Madhya Pradesh
68SHDRShadhoragaon  04:19-04:21-2m--215.461504mWCRGuna, Madhya Pradesh
69RIKARatikheda  04:29-04:31-2m--223.548526mWCRGuna, Madhya Pradesh
70ASKNAshok Nagar (2)  04:40-04:42-2m--230.754502mWCRAshoknagar, Madhya Pradesh
71ORROrr  04:56-04:58-2m--243.459450mWCRAshoknagar, Madhya Pradesh
72PIAPipraigaon (3)  05:18 05:12-05:20 05:14-2m2257.159451mWCRAshoknagar, Madhya Pradesh
73GVBGuneru Bamori (2)  05:33 05:25-05:35 05:27-2m--268.063427mWCRAshoknagar, Madhya Pradesh
74MNVMungaoli (2)X  05:43 05:35-05:45 05:37-2m--276.453403mWCRAshoknagar, Madhya Pradesh
75KXBKanjiya  05:55 05:46-05:57 05:48-2m--284.482390mWCRMungaoli, Madhya Pradesh
76SRKISemarkheri  06:03 05:54-06:05 05:56-2m--292.651412mWCRBina, Madhya Pradesh
77MDVKMahadeokhedi  06:13 06:02-06:15 06:04-2m--297.713423mWCRBina, Madhya Pradesh
78BINABina Junction (5)X  06:40-06:50-10m22105.470414mWCRJn Pt - KATNI/GUNA/ BPL/JHS, Madhya Pradesh
79KIKAKurwai Kethora (2)  06:58-07:00-2m--2114.753407mWCRBina, Madhya Pradesh
80MABAMandi Bamora (3)X  07:09-07:11-2m22122.766413mWCRState Highway 14, Madhya Pradesh
81KAHKalhar (3)  07:19-07:21-2m--2131.566409mWCRSagar, Madhya Pradesh
82BETBareth (4)XO  07:30-07:32-2m--2141.325418mWCRState Highway 19, Madhya Pradesh
83BAQGanj Basoda (4)XO  07:56-07:58-2m22151.266 WCRVidisha, Madhya Pradesh
84PAIPabai (3)XO  08:06-08:08-2m--2159.972 WCRVidisha, Madhya Pradesh
85GLGGulabhGanj (3)XO  08:16-08:18-2m22169.556 WCRVidisha, Madhya Pradesh
86SUMRSumer (3)X  08:26-08:28-2m--2177.040 WCRVidisha, Madhya Pradesh
87BHSVidisha (3)XO  09:09 08:48-09:11 08:50-2m22190.523 WCRVidisha, Madhya Pradesh
88SCISanchi (2)X  09:23 09:15-09:25 09:17-2m12199.955428mWCRRaisen, Madhya Pradesh
89SMTSalamatpur (3)XO  09:33 09:25-09:35 09:27-2m12207.231 WCRRaisen, Madhya Pradesh
90DWGDewanGanj (3)X  09:43 09:45-09:45 09:47-2m22216.559 WCRRaisen, Madhya Pradesh
91BVBBhadbhadaghat (2)X  09:56-09:58-2m12225.330474mWCRVidisha Road Bhopal, Madhya Pradesh
92SUWSukhisewaniyan (3)XO  10:08 10:13-10:10 10:15-2m22232.819508mWCRBhopal, Madhya Pradesh
93BPL•Bhopal Junction (6)•  10:50--52244.0-497mWCRBhopal, Madhya Pradesh
Scroll to Top
Scroll to Bottom